createdAt,value
2019-03-31T00:00:04.430Z,1004.81
2019-03-31T00:05:08.834Z,1004.83
2019-03-31T00:10:02.177Z,1004.83
2019-03-31T00:15:09.809Z,1004.96
2019-03-31T00:20:09.700Z,1004.93
2019-03-31T00:25:08.297Z,1004.93
2019-03-31T00:30:09.371Z,1004.94
2019-03-31T00:35:07.514Z,1004.94
2019-03-31T00:40:07.897Z,1004.93
2019-03-31T00:45:04.427Z,1004.9
2019-03-31T00:50:07.709Z,1004.83
2019-03-31T00:55:06.731Z,1004.85
2019-03-31T01:00:13.805Z,1004.83
2019-03-31T01:05:08.213Z,1004.83
2019-03-31T01:10:06.557Z,1004.85
2019-03-31T01:15:03.678Z,1004.86
2019-03-31T01:20:06.556Z,1004.82
2019-03-31T01:25:05.606Z,1004.77
2019-03-31T01:30:06.050Z,1004.73
2019-03-31T01:35:06.724Z,1004.72
2019-03-31T01:40:05.300Z,1004.71
2019-03-31T01:45:10.114Z,1004.7
2019-03-31T01:50:06.811Z,1004.72
2019-03-31T01:55:07.112Z,1004.64
2019-03-31T02:00:04.046Z,1004.63
2019-03-31T02:05:06.591Z,1004.59
2019-03-31T02:10:07.635Z,1004.53
2019-03-31T02:15:03.579Z,1004.56
2019-03-31T02:20:09.730Z,1004.61
2019-03-31T02:25:08.725Z,1004.54
2019-03-31T02:30:10.035Z,1004.51
2019-03-31T02:35:10.197Z,1004.46
2019-03-31T02:40:07.879Z,1004.45
2019-03-31T02:45:10.078Z,1004.45
2019-03-31T02:50:08.475Z,1004.51
2019-03-31T02:55:07.257Z,1004.51
2019-03-31T03:00:10.054Z,1004.46
2019-03-31T03:05:21.726Z,1004.46
2019-03-31T03:10:06.338Z,1004.5
2019-03-31T03:15:07.846Z,1004.5
2019-03-31T03:20:07.339Z,1004.51
2019-03-31T03:25:07.664Z,1004.57
2019-03-31T03:30:04.240Z,1004.64
2019-03-31T03:35:07.031Z,1004.78
2019-03-31T03:40:07.750Z,1004.83
2019-03-31T03:45:03.269Z,1004.76
2019-03-31T03:50:06.823Z,1004.79
2019-03-31T03:55:08.699Z,1004.74
2019-03-31T04:00:03.261Z,1004.78
2019-03-31T04:05:07.087Z,1004.74
2019-03-31T04:10:04.394Z,1004.71
2019-03-31T04:15:07.237Z,1004.74
2019-03-31T04:20:06.943Z,1004.77
2019-03-31T04:25:10.567Z,1004.83
2019-03-31T04:30:04.372Z,1004.8
2019-03-31T04:35:09.898Z,1004.91
2019-03-31T04:40:08.178Z,1005.08
2019-03-31T04:45:02.809Z,1005.17
2019-03-31T04:50:10.964Z,1005.08
2019-03-31T04:55:08.442Z,1005.11
2019-03-31T05:00:03.058Z,1005.18
2019-03-31T05:05:07.246Z,1005.21
2019-03-31T05:10:03.552Z,1005.16
2019-03-31T05:15:08.139Z,1005.13
2019-03-31T05:20:06.203Z,1005.19
2019-03-31T05:25:07.777Z,1005.25
2019-03-31T05:30:03.291Z,1005.36
2019-03-31T05:35:06.866Z,1005.38
2019-03-31T05:40:08.168Z,1005.42
2019-03-31T05:45:02.726Z,1005.4
2019-03-31T05:50:07.750Z,1005.38
2019-03-31T05:55:06.250Z,1005.47
2019-03-31T06:00:02.911Z,1005.54
2019-03-31T06:05:08.149Z,1005.65
2019-03-31T06:10:05.741Z,1005.74
2019-03-31T06:15:03.280Z,1005.84
2019-03-31T06:20:05.920Z,1005.72
2019-03-31T06:25:06.531Z,1005.77
2019-03-31T06:30:03.057Z,1005.77
2019-03-31T06:35:04.029Z,1005.78
2019-03-31T06:40:04.485Z,1005.88
2019-03-31T06:45:04.001Z,1005.82
2019-03-31T06:50:06.066Z,1005.82
2019-03-31T06:55:05.155Z,1005.77
2019-03-31T07:00:03.655Z,1005.83
2019-03-31T07:05:06.461Z,1005.8
2019-03-31T07:10:06.196Z,1005.8
2019-03-31T07:15:03.963Z,1005.79
2019-03-31T07:20:06.644Z,1005.8
2019-03-31T07:25:07.735Z,1005.94
2019-03-31T07:30:08.491Z,1005.94
2019-03-31T07:35:19.326Z,1006
2019-03-31T07:40:08.200Z,1006.02
2019-03-31T07:45:03.975Z,1006.1
2019-03-31T07:50:07.067Z,1006.06
2019-03-31T07:55:06.955Z,1006.23
2019-03-31T08:00:04.819Z,1006.29
2019-03-31T08:05:07.424Z,1006.29
2019-03-31T08:10:07.270Z,1006.34
2019-03-31T08:15:04.115Z,1006.38
2019-03-31T08:20:06.594Z,1006.37
2019-03-31T08:25:07.770Z,1006.35
2019-03-31T08:30:04.389Z,1006.38
2019-03-31T08:35:07.061Z,1006.38
2019-03-31T08:40:06.792Z,1006.39
2019-03-31T08:45:04.516Z,1006.46
2019-03-31T08:50:07.734Z,1006.44
2019-03-31T08:55:08.020Z,1006.46
2019-03-31T09:00:03.868Z,1006.56
2019-03-31T09:05:07.490Z,1006.6
2019-03-31T09:10:09.362Z,1006.68
2019-03-31T09:15:04.670Z,1006.74
2019-03-31T09:20:09.740Z,1006.72
2019-03-31T09:25:08.191Z,1006.68
2019-03-31T09:30:04.110Z,1006.71
2019-03-31T09:35:08.047Z,1006.73
2019-03-31T09:40:07.324Z,1006.76
2019-03-31T09:45:04.118Z,1006.82
2019-03-31T09:50:07.182Z,1006.83
2019-03-31T09:55:07.483Z,1006.79
2019-03-31T10:00:04.339Z,1006.76
2019-03-31T10:05:07.955Z,1006.71
2019-03-31T10:10:06.615Z,1006.74
2019-03-31T10:15:04.186Z,1006.73
2019-03-31T10:20:06.191Z,1006.73
2019-03-31T10:25:07.442Z,1006.73
2019-03-31T10:30:03.093Z,1006.68
2019-03-31T10:35:06.154Z,1006.69
2019-03-31T10:40:06.907Z,1006.65
2019-03-31T10:45:03.444Z,1006.58
2019-03-31T10:50:06.730Z,1006.54
2019-03-31T10:55:07.539Z,1006.51
2019-03-31T11:00:03.114Z,1006.45
2019-03-31T11:05:07.139Z,1006.41
2019-03-31T11:10:08.342Z,1006.41
2019-03-31T11:15:02.918Z,1006.28
2019-03-31T11:20:07.403Z,1006.22
2019-03-31T11:25:29.390Z,1006.27
2019-03-31T11:30:03.124Z,1006.29
2019-03-31T11:35:06.671Z,1006.27
2019-03-31T11:40:09.731Z,1006.36
2019-03-31T11:45:03.273Z,1006.31
2019-03-31T11:50:06.805Z,1006.26
2019-03-31T11:55:09.987Z,1006.34
2019-03-31T12:00:03.522Z,1006.45
2019-03-31T12:05:09.246Z,1006.46
2019-03-31T12:10:08.264Z,1006.48
2019-03-31T12:15:02.890Z,1006.51
2019-03-31T12:20:09.969Z,1006.43
2019-03-31T12:25:08.563Z,1006.39
2019-03-31T12:30:03.076Z,1006.4
2019-03-31T12:35:06.409Z,1006.4
2019-03-31T12:40:05.936Z,1006.35
2019-03-31T12:45:03.440Z,1006.36
2019-03-31T12:50:05.956Z,1006.34
2019-03-31T12:55:06.611Z,1006.32
2019-03-31T13:00:03.192Z,1006.34
2019-03-31T13:05:06.314Z,1006.3
2019-03-31T13:10:05.538Z,1006.25
2019-03-31T13:15:03.124Z,1006.27
2019-03-31T13:20:05.699Z,1006.33
2019-03-31T13:25:06.234Z,1006.26
2019-03-31T13:30:02.829Z,1006.3
2019-03-31T13:35:08.719Z,1006.31
2019-03-31T13:40:06.181Z,1006.27
2019-03-31T13:45:03.386Z,1006.23
2019-03-31T13:50:05.158Z,1006.25
2019-03-31T13:55:05.529Z,1006.2
2019-03-31T14:00:03.690Z,1006.18
2019-03-31T14:05:07.211Z,1006.16
2019-03-31T14:10:07.024Z,1006.17
2019-03-31T14:15:19.590Z,1006.12
2019-03-31T14:20:06.515Z,1006.19
2019-03-31T14:25:07.670Z,1006.16
2019-03-31T14:30:04.356Z,1006.19
2019-03-31T14:35:06.164Z,1006.15
2019-03-31T14:40:06.807Z,1006.2
2019-03-31T14:45:04.440Z,1006.16
2019-03-31T14:50:06.211Z,1006.22
2019-03-31T14:55:06.948Z,1006.2
2019-03-31T15:00:15.932Z,1006.16
2019-03-31T15:05:07.199Z,1006.18
2019-03-31T15:10:06.837Z,1006.22
2019-03-31T15:15:04.401Z,1006.21
2019-03-31T15:20:06.643Z,1006.22
2019-03-31T15:25:07.856Z,1006.19
2019-03-31T15:30:04.506Z,1006.15
2019-03-31T15:35:06.794Z,1006.14
2019-03-31T15:40:07.610Z,1006.21
2019-03-31T15:45:04.166Z,1006.21
2019-03-31T15:50:06.746Z,1006.2
2019-03-31T15:55:08.130Z,1006.22
2019-03-31T16:00:03.934Z,1006.21
2019-03-31T16:05:08.206Z,1006.2
2019-03-31T16:10:09.428Z,1006.15
2019-03-31T16:15:04.358Z,1006.19
2019-03-31T16:20:09.405Z,1006.16
2019-03-31T16:25:07.893Z,1006.14
2019-03-31T16:30:04.623Z,1006.19
2019-03-31T16:35:09.576Z,1006.2
2019-03-31T16:40:07.770Z,1006.15
2019-03-31T16:45:04.481Z,1006.14
2019-03-31T16:50:07.394Z,1006.16
2019-03-31T16:55:07.615Z,1006.21
2019-03-31T17:00:04.244Z,1006.27
2019-03-31T17:05:22.489Z,1006.33
2019-03-31T17:10:07.844Z,1006.39
2019-03-31T17:15:04.466Z,1006.39
2019-03-31T17:20:06.492Z,1006.35
2019-03-31T17:25:07.521Z,1006.38
2019-03-31T17:30:03.030Z,1006.4
2019-03-31T17:35:06.069Z,1006.38
2019-03-31T17:40:09.602Z,1006.37
2019-03-31T17:45:03.188Z,1006.36
2019-03-31T17:50:05.955Z,1006.42
2019-03-31T17:55:07.672Z,1006.47
2019-03-31T18:00:03.276Z,1006.44
2019-03-31T18:05:06.880Z,1006.41
2019-03-31T18:10:21.494Z,1006.49
2019-03-31T18:15:03.145Z,1006.54
2019-03-31T18:20:06.776Z,1006.64
2019-03-31T18:25:07.660Z,1006.68
2019-03-31T18:30:03.346Z,1006.73
2019-03-31T18:35:06.826Z,1006.79
2019-03-31T18:40:09.850Z,1006.82
2019-03-31T18:45:03.437Z,1006.87
2019-03-31T18:50:08.107Z,1006.92
2019-03-31T18:55:09.309Z,1007.08
2019-03-31T19:00:04.171Z,1007.15
2019-03-31T19:05:10.239Z,1007.24
2019-03-31T19:10:07.320Z,1007.17
2019-03-31T19:15:02.913Z,1007.2
2019-03-31T19:20:08.138Z,1007.22
2019-03-31T19:25:07.943Z,1007.25
2019-03-31T19:30:04.652Z,1007.31
2019-03-31T19:35:09.209Z,1007.39
2019-03-31T19:40:12.015Z,1007.43
2019-03-31T19:45:08.463Z,1007.55
2019-03-31T19:50:06.952Z,1007.57
2019-03-31T19:55:08.181Z,1007.61
2019-03-31T20:00:06.608Z,1007.67
2019-03-31T20:05:09.227Z,1007.65
2019-03-31T20:10:08.035Z,1007.74
2019-03-31T20:15:08.687Z,1007.76
2019-03-31T20:20:16.152Z,1007.78
2019-03-31T20:25:11.905Z,1007.79
2019-03-31T20:30:10.139Z,1007.84
2019-03-31T20:35:10.127Z,1007.87
2019-03-31T20:40:10.670Z,1007.8
2019-03-31T20:45:13.518Z,1007.8
2019-03-31T20:50:11.049Z,1007.78
2019-03-31T20:55:23.781Z,1007.73
2019-03-31T21:00:14.149Z,1007.77
2019-03-31T21:05:13.616Z,1007.72
2019-03-31T21:10:11.682Z,1007.71
2019-03-31T21:15:12.465Z,1007.78
2019-03-31T21:20:11.402Z,1007.76
2019-03-31T21:25:13.987Z,1007.81
2019-03-31T21:30:11.880Z,1007.75
2019-03-31T21:35:14.798Z,1007.81
2019-03-31T21:40:13.680Z,1007.83
2019-03-31T21:45:12.914Z,1007.86
2019-03-31T21:50:16.240Z,1007.94
2019-03-31T21:55:13.044Z,1007.88
2019-03-31T22:00:09.126Z,1007.94
2019-03-31T22:05:12.593Z,1007.89
2019-03-31T22:10:10.845Z,1007.9
2019-03-31T22:15:07.200Z,1007.9
2019-03-31T22:20:07.778Z,1007.86
2019-03-31T22:25:07.286Z,1007.87
2019-03-31T22:30:06.804Z,1007.84
2019-03-31T22:35:09.287Z,1007.81
2019-03-31T22:40:11.049Z,1007.79
2019-03-31T22:45:12.085Z,1007.78
2019-03-31T22:50:14.748Z,1007.75
2019-03-31T22:55:17.475Z,1007.73
2019-03-31T23:00:15.072Z,1007.73
2019-03-31T23:05:17.177Z,1007.7
2019-03-31T23:10:01.411Z,1007.7
2019-03-31T23:20:26.638Z,1007.57
2019-03-31T23:25:23.272Z,1007.54
2019-03-31T23:30:01.531Z,1007.54
2019-03-31T23:35:21.719Z,1007.57
2019-03-31T23:40:14.134Z,1007.51
2019-03-31T23:45:15.200Z,1007.51
2019-03-31T23:50:13.823Z,1007.42
2019-03-31T23:55:17.378Z,1007.24
